ΕΜΥ, Εθνική Μετεωρολογική Υπηρεσία - Δελτία Καιρού, Προγνώσεις

ΑΕΡΟΝΑΥΤΙΛΙΑ

GREEK AIRPORTS CODES

TAF LGMG 150700Z 1509/1518 VRB05KT 9999 FEW025=

EUROPEAN AIRPORTS CODES

LFPO 151100Z 24019KT 210V270 9999 SCT038 SCT045 14/05 Q1014NOSIG=